Tuesday, December 18, 2018, 4:21 PM EST
Back to Local

KPNE, N.e. Philadelphia Airport

Location: Philadelphia, PA, United States Lat: 40.083
Local Time: 4:21 PM EST (21:21 GMT) Lon: -75.017
Time Zone: US/Eastern Elev: 121 ft

Show me the last for .
Show Decoded

2018-12-18 15:54 METAR KPNE 182054Z 34011KT 10SM CLR 04/M09 A3012 RMK AO2 SLP201 T00441089 53007
                 =
2018-12-18 14:54 METAR KPNE 181954Z 33013KT 10SM CLR 05/M09 A3011 RMK AO2 SLP197 T00501094 =
2018-12-18 13:54 METAR KPNE 181854Z 33012G20KT 10SM CLR 05/M09 A3010 RMK AO2 SLP194 T00501094 =
2018-12-18 11:54 METAR KPNE 181654Z 33016G24KT 10SM CLR 04/M09 A3010 RMK AO2 PK WND 34029/1559
                 SLP194 T00441089 =
2018-12-18 10:54 METAR KPNE 181554Z 34017G23KT 10SM CLR 04/M08 A3010 RMK AO2 SLP194 T00441083 =
2018-12-18 09:54 METAR KPNE 181454Z 34013G24KT 10SM CLR 04/M08 A3009 RMK AO2 SLP191 T00391078
                 51029 =
2018-12-18 08:54 METAR KPNE 181354Z 33015G21KT 10SM CLR 03/M07 A3007 RMK AO2 SLP183 T00281072 =
2018-12-18 07:54 METAR KPNE 181254Z 34012KT 10SM CLR 02/M08 A3004 RMK AO2 SLP171 T00221078 $ =
2018-12-18 06:54 METAR KPNE 181154Z 31009KT 10SM CLR 02/M08 A3001 RMK AO2 SLP162 T00221083 10056
                 20017 $ =
2018-12-18 05:54 METAR KPNE 181054Z AUTO 33015G27KT 10SM CLR 03/M08 A2999 RMK AO2 PK WND
                 34027/1027 SLP156 T00281083 $ =
2018-12-18 04:54 METAR KPNE 180954Z AUTO 32018G26KT 10SM CLR 03/M08 A2996 RMK AO2 PK WND
                 34026/0947 SLP147 T00331083 =
2018-12-18 03:54 METAR KPNE 180854Z AUTO 31011G18KT 10SM FEW050 04/M07 A2993 RMK AO2 PK WND
                 30026/0819 SLP135 T00391067 53018 =
2018-12-18 02:54 METAR KPNE 180754Z AUTO 32014G26KT 10SM OVC055 05/M07 A2991 RMK AO2 PK WND
                 30027/0729 SLP127 T00501067 =
2018-12-18 01:54 METAR KPNE 180654Z AUTO 31013G19KT 10SM OVC055 05/M06 A2989 RMK AO2 SLP122
                 T00501061 =
2018-12-18 00:54 METAR KPNE 180554Z AUTO 31009G16KT 10SM OVC050 06/M06 A2988 RMK AO2 SLP118
                 T00561061 10072 20056 50003 =
2018-12-17 23:54 METAR KPNE 180454Z AUTO 31016G26KT 10SM OVC055 06/M06 A2988 RMK AO2 PK WND
                 30026/0446 SLP119 T00561056 400940039 =
2018-12-17 22:54 METAR KPNE 180354Z 31010G17KT 10SM OVC047 06/M04 A2987 RMK AO2 SLP114 T00611039
                 =
2018-12-17 21:54 METAR KPNE 180254Z 30010G24KT 280V340 10SM OVC060 07/M04 A2987 RMK AO2 SLP115
                 T00671044 50002 =
2018-12-17 20:54 METAR KPNE 180154Z 32015G21KT 10SM OVC050 07/M04 A2987 RMK AO2 PK WND 29026/0122
                 SLP115 T00671039 =
2018-12-17 19:54 METAR KPNE 180054Z 30013G22KT 10SM OVC047 07/M04 A2987 RMK AO2 PK WND 33026/0016
                 SLP114 T00671039 =
2018-12-17 18:54 METAR KPNE 172354Z 31011G20KT 10SM OVC050 07/M04 A2986 RMK AO2 PK WND 32028/2304
                 SLP112 T00721044 10094 20072 53024 =
2018-12-17 17:54 METAR KPNE 172254Z 31013G21KT 10SM OVC050 08/M04 A2984 RMK AO2 SLP105 T00781039
                 =
2018-12-17 16:54 METAR KPNE 172154Z 29010G21KT 10SM OVC055 08/M03 A2981 RMK AO2 SLP094 T00831033
                 =

Support USWX by starting your Amazon purchase here.